sensor_id;sensor_type;location;lat;lon;timestamp;temperature;humidity
61255;DHT22;47128;47.530;8.584;2022-07-03T00:01:55;17.70;99.90
61255;DHT22;47128;47.530;8.584;2022-07-03T00:04:21;17.80;99.90
61255;DHT22;47128;47.530;8.584;2022-07-03T00:06:47;17.80;99.90
61255;DHT22;47128;47.530;8.584;2022-07-03T00:09:13;17.80;99.90
61255;DHT22;47128;47.530;8.584;2022-07-03T00:11:39;17.80;99.90
61255;DHT22;47128;47.530;8.584;2022-07-03T00:14:04;17.80;99.90
61255;DHT22;47128;47.530;8.584;2022-07-03T00:16:30;17.80;99.90
61255;DHT22;47128;47.530;8.584;2022-07-03T00:18:56;17.80;99.90
61255;DHT22;47128;47.530;8.584;2022-07-03T00:21:33;17.70;99.90
61255;DHT22;47128;47.530;8.584;2022-07-03T00:24:08;17.60;99.90
61255;DHT22;47128;47.530;8.584;2022-07-03T00:26:38;17.70;99.90
61255;DHT22;47128;47.530;8.584;2022-07-03T00:29:05;17.60;99.90
61255;DHT22;47128;47.530;8.584;2022-07-03T00:31:33;17.60;99.90
61255;DHT22;47128;47.530;8.584;2022-07-03T00:34:00;17.70;99.90
61255;DHT22;47128;47.530;8.584;2022-07-03T00:36:29;17.70;99.90
61255;DHT22;47128;47.530;8.584;2022-07-03T00:38:55;17.70;99.90
61255;DHT22;47128;47.530;8.584;2022-07-03T00:41:30;17.60;99.90
61255;DHT22;47128;47.530;8.584;2022-07-03T00:43:56;17.60;99.90
61255;DHT22;47128;47.530;8.584;2022-07-03T00:46:24;17.60;99.90
61255;DHT22;47128;47.530;8.584;2022-07-03T00:48:51;17.40;99.90
61255;DHT22;47128;47.530;8.584;2022-07-03T00:51:38;17.30;99.90
61255;DHT22;47128;47.530;8.584;2022-07-03T00:54:05;17.40;99.90
61255;DHT22;47128;47.530;8.584;2022-07-03T00:56:33;17.40;99.90
61255;DHT22;47128;47.530;8.584;2022-07-03T00:59:01;17.40;99.90
61255;DHT22;47128;47.530;8.584;2022-07-03T01:01:30;17.40;99.90
61255;DHT22;47128;47.530;8.584;2022-07-03T01:06:58;17.40;99.90
61255;DHT22;47128;47.530;8.584;2022-07-03T01:20:41;17.20;99.90
61255;DHT22;47128;47.530;8.584;2022-07-03T01:23:29;17.20;99.90
61255;DHT22;47128;47.530;8.584;2022-07-03T01:25:58;17.30;99.90
61255;DHT22;47128;47.530;8.584;2022-07-03T01:28:28;17.20;99.90
61255;DHT22;47128;47.530;8.584;2022-07-03T01:30:54;17.20;99.90
61255;DHT22;47128;47.530;8.584;2022-07-03T01:33:24;17.20;99.90
61255;DHT22;47128;47.530;8.584;2022-07-03T01:38:27;17.20;99.90
61255;DHT22;47128;47.530;8.584;2022-07-03T01:40:55;17.10;99.90
61255;DHT22;47128;47.530;8.584;2022-07-03T01:43:27;17.10;99.90
61255;DHT22;47128;47.530;8.584;2022-07-03T01:45:56;17.00;99.90
61255;DHT22;47128;47.530;8.584;2022-07-03T01:48:23;17.00;99.90
61255;DHT22;47128;47.530;8.584;2022-07-03T01:50:49;17.10;99.90
61255;DHT22;47128;47.530;8.584;2022-07-03T01:53:17;17.10;99.90
61255;DHT22;47128;47.530;8.584;2022-07-03T01:55:43;17.20;99.90
61255;DHT22;47128;47.530;8.584;2022-07-03T01:58:10;17.10;99.90
61255;DHT22;47128;47.530;8.584;2022-07-03T02:03:30;17.20;99.90
61255;DHT22;47128;47.530;8.584;2022-07-03T02:06:19;17.10;99.90
61255;DHT22;47128;47.530;8.584;2022-07-03T02:09:06;17.10;99.90
61255;DHT22;47128;47.530;8.584;2022-07-03T02:11:40;17.10;99.90
61255;DHT22;47128;47.530;8.584;2022-07-03T02:14:19;17.10;99.90
61255;DHT22;47128;47.530;8.584;2022-07-03T02:17:18;17.00;99.90
61255;DHT22;47128;47.530;8.584;2022-07-03T02:19:55;16.90;99.90
61255;DHT22;47128;47.530;8.584;2022-07-03T02:22:36;16.90;99.90
61255;DHT22;47128;47.530;8.584;2022-07-03T02:25:26;16.90;99.90
61255;DHT22;47128;47.530;8.584;2022-07-03T02:28:04;16.90;99.90
61255;DHT22;47128;47.530;8.584;2022-07-03T02:30:34;16.90;99.90
61255;DHT22;47128;47.530;8.584;2022-07-03T02:33:01;16.90;99.90
61255;DHT22;47128;47.530;8.584;2022-07-03T02:35:28;16.70;99.90
61255;DHT22;47128;47.530;8.584;2022-07-03T02:40:27;16.70;99.90
61255;DHT22;47128;47.530;8.584;2022-07-03T02:48:31;16.80;99.90
61255;DHT22;47128;47.530;8.584;2022-07-03T02:51:04;16.80;99.90
61255;DHT22;47128;47.530;8.584;2022-07-03T02:53:41;16.80;99.90
61255;DHT22;47128;47.530;8.584;2022-07-03T02:56:15;16.80;99.90
61255;DHT22;47128;47.530;8.584;2022-07-03T02:59:03;16.60;99.90
61255;DHT22;47128;47.530;8.584;2022-07-03T03:04:29;16.60;99.90
61255;DHT22;47128;47.530;8.584;2022-07-03T03:07:14;16.50;99.90
61255;DHT22;47128;47.530;8.584;2022-07-03T03:09:44;16.50;99.90
61255;DHT22;47128;47.530;8.584;2022-07-03T03:12:12;16.50;99.90
61255;DHT22;47128;47.530;8.584;2022-07-03T03:14:45;16.40;99.90
61255;DHT22;47128;47.530;8.584;2022-07-03T03:17:17;16.50;99.90
61255;DHT22;47128;47.530;8.584;2022-07-03T03:19:46;16.40;99.90
61255;DHT22;47128;47.530;8.584;2022-07-03T03:22:29;16.40;99.90
61255;DHT22;47128;47.530;8.584;2022-07-03T03:25:04;16.30;99.90
61255;DHT22;47128;47.530;8.584;2022-07-03T03:27:29;16.40;99.90
61255;DHT22;47128;47.530;8.584;2022-07-03T03:29:56;16.40;99.90
61255;DHT22;47128;47.530;8.584;2022-07-03T03:32:22;16.30;99.90
61255;DHT22;47128;47.530;8.584;2022-07-03T03:34:49;16.30;99.90
61255;DHT22;47128;47.530;8.584;2022-07-03T03:37:15;16.40;99.90
61255;DHT22;47128;47.530;8.584;2022-07-03T03:39:42;16.40;99.90
61255;DHT22;47128;47.530;8.584;2022-07-03T03:42:08;16.30;99.90
61255;DHT22;47128;47.530;8.584;2022-07-03T03:44:34;16.30;99.90
61255;DHT22;47128;47.530;8.584;2022-07-03T03:47:00;16.30;99.90
61255;DHT22;47128;47.530;8.584;2022-07-03T03:49:26;16.40;99.90
61255;DHT22;47128;47.530;8.584;2022-07-03T03:51:52;16.40;99.90
61255;DHT22;47128;47.530;8.584;2022-07-03T03:54:18;16.30;99.90
61255;DHT22;47128;47.530;8.584;2022-07-03T03:56:44;16.30;99.90
61255;DHT22;47128;47.530;8.584;2022-07-03T03:59:09;16.20;99.90
61255;DHT22;47128;47.530;8.584;2022-07-03T04:01:35;16.20;99.90
61255;DHT22;47128;47.530;8.584;2022-07-03T04:04:01;16.30;99.90
61255;DHT22;47128;47.530;8.584;2022-07-03T04:06:26;16.30;99.90
61255;DHT22;47128;47.530;8.584;2022-07-03T04:08:52;16.40;99.90
61255;DHT22;47128;47.530;8.584;2022-07-03T04:11:18;16.40;99.90
61255;DHT22;47128;47.530;8.584;2022-07-03T04:13:47;16.30;99.90
61255;DHT22;47128;47.530;8.584;2022-07-03T04:16:13;16.30;99.90
61255;DHT22;47128;47.530;8.584;2022-07-03T04:18:38;16.30;99.90
61255;DHT22;47128;47.530;8.584;2022-07-03T04:21:04;16.30;99.90
61255;DHT22;47128;47.530;8.584;2022-07-03T04:23:30;16.30;99.90
61255;DHT22;47128;47.530;8.584;2022-07-03T04:26:05;16.40;99.90
61255;DHT22;47128;47.530;8.584;2022-07-03T04:28:31;16.30;99.90
61255;DHT22;47128;47.530;8.584;2022-07-03T04:30:57;16.30;99.90
61255;DHT22;47128;47.530;8.584;2022-07-03T04:33:23;16.30;99.90
61255;DHT22;47128;47.530;8.584;2022-07-03T04:35:48;16.40;99.90
61255;DHT22;47128;47.530;8.584;2022-07-03T04:38:14;16.40;99.90
61255;DHT22;47128;47.530;8.584;2022-07-03T04:40:39;16.40;99.90
61255;DHT22;47128;47.530;8.584;2022-07-03T04:43:05;16.40;99.90
61255;DHT22;47128;47.530;8.584;2022-07-03T04:45:31;16.50;99.90
61255;DHT22;47128;47.530;8.584;2022-07-03T04:47:56;16.40;99.90
61255;DHT22;47128;47.530;8.584;2022-07-03T04:50:22;16.50;99.90
61255;DHT22;47128;47.530;8.584;2022-07-03T04:52:48;16.60;99.90
61255;DHT22;47128;47.530;8.584;2022-07-03T04:55:13;16.70;99.90
61255;DHT22;47128;47.530;8.584;2022-07-03T04:57:39;16.90;99.90
61255;DHT22;47128;47.530;8.584;2022-07-03T05:00:06;17.00;99.90
61255;DHT22;47128;47.530;8.584;2022-07-03T05:02:32;17.00;99.90
61255;DHT22;47128;47.530;8.584;2022-07-03T05:04:57;17.10;99.90
61255;DHT22;47128;47.530;8.584;2022-07-03T05:07:23;17.20;99.90
61255;DHT22;47128;47.530;8.584;2022-07-03T05:09:49;17.40;99.90
61255;DHT22;47128;47.530;8.584;2022-07-03T05:12:14;17.50;99.90
61255;DHT22;47128;47.530;8.584;2022-07-03T05:14:40;17.50;99.90
61255;DHT22;47128;47.530;8.584;2022-07-03T05:17:06;17.50;99.90
61255;DHT22;47128;47.530;8.584;2022-07-03T05:19:31;17.60;99.90
61255;DHT22;47128;47.530;8.584;2022-07-03T05:21:57;17.80;99.90
61255;DHT22;47128;47.530;8.584;2022-07-03T05:24:22;17.90;99.90
61255;DHT22;47128;47.530;8.584;2022-07-03T05:26:49;17.90;99.90
61255;DHT22;47128;47.530;8.584;2022-07-03T05:29:15;17.90;99.90
61255;DHT22;47128;47.530;8.584;2022-07-03T05:31:41;18.00;99.90
61255;DHT22;47128;47.530;8.584;2022-07-03T05:34:07;18.30;99.90
61255;DHT22;47128;47.530;8.584;2022-07-03T05:38:59;18.80;99.90
61255;DHT22;47128;47.530;8.584;2022-07-03T05:41:43;19.10;99.90
61255;DHT22;47128;47.530;8.584;2022-07-03T05:44:09;19.40;99.90
61255;DHT22;47128;47.530;8.584;2022-07-03T05:46:34;19.50;99.90
61255;DHT22;47128;47.530;8.584;2022-07-03T05:49:00;19.70;99.90
61255;DHT22;47128;47.530;8.584;2022-07-03T05:51:25;19.80;99.90
61255;DHT22;47128;47.530;8.584;2022-07-03T05:53:51;20.00;99.80
61255;DHT22;47128;47.530;8.584;2022-07-03T05:56:16;20.30;99.40
61255;DHT22;47128;47.530;8.584;2022-07-03T05:58:42;21.10;98.50
61255;DHT22;47128;47.530;8.584;2022-07-03T06:01:08;22.50;96.60
61255;DHT22;47128;47.530;8.584;2022-07-03T06:03:33;23.70;94.50
61255;DHT22;47128;47.530;8.584;2022-07-03T06:05:59;25.40;91.20
61255;DHT22;47128;47.530;8.584;2022-07-03T06:08:25;26.40;89.30
61255;DHT22;47128;47.530;8.584;2022-07-03T06:10:51;26.80;89.30
61255;DHT22;47128;47.530;8.584;2022-07-03T06:13:16;27.40;86.80
61255;DHT22;47128;47.530;8.584;2022-07-03T06:15:42;26.60;86.80
61255;DHT22;47128;47.530;8.584;2022-07-03T06:18:07;25.40;89.20
61255;DHT22;47128;47.530;8.584;2022-07-03T06:20:33;24.60;90.80
61255;DHT22;47128;47.530;8.584;2022-07-03T06:22:59;25.20;90.90
61255;DHT22;47128;47.530;8.584;2022-07-03T06:25:24;26.10;89.90
61255;DHT22;47128;47.530;8.584;2022-07-03T06:27:50;27.50;86.80
61255;DHT22;47128;47.530;8.584;2022-07-03T06:30:15;28.60;83.50
61255;DHT22;47128;47.530;8.584;2022-07-03T06:32:41;29.00;81.80
61255;DHT22;47128;47.530;8.584;2022-07-03T06:35:07;29.40;81.40
61255;DHT22;47128;47.530;8.584;2022-07-03T06:37:33;30.10;79.80
61255;DHT22;47128;47.530;8.584;2022-07-03T06:39:58;30.80;77.90
61255;DHT22;47128;47.530;8.584;2022-07-03T06:42:24;31.40;76.40
61255;DHT22;47128;47.530;8.584;2022-07-03T06:44:49;31.50;75.10
61255;DHT22;47128;47.530;8.584;2022-07-03T06:47:15;31.90;73.70
61255;DHT22;47128;47.530;8.584;2022-07-03T06:49:40;31.80;73.20
61255;DHT22;47128;47.530;8.584;2022-07-03T06:52:08;31.70;72.70
61255;DHT22;47128;47.530;8.584;2022-07-03T06:54:34;32.00;72.00
61255;DHT22;47128;47.530;8.584;2022-07-03T06:57:03;32.20;71.40
61255;DHT22;47128;47.530;8.584;2022-07-03T06:59:29;32.20;71.00
61255;DHT22;47128;47.530;8.584;2022-07-03T07:01:55;32.40;70.90
61255;DHT22;47128;47.530;8.584;2022-07-03T07:04:20;32.80;70.10
61255;DHT22;47128;47.530;8.584;2022-07-03T07:06:46;32.70;70.40
61255;DHT22;47128;47.530;8.584;2022-07-03T07:09:11;33.30;69.50
61255;DHT22;47128;47.530;8.584;2022-07-03T07:11:37;32.90;68.90
61255;DHT22;47128;47.530;8.584;2022-07-03T07:14:02;32.60;69.30
61255;DHT22;47128;47.530;8.584;2022-07-03T07:16:28;32.80;68.90
61255;DHT22;47128;47.530;8.584;2022-07-03T07:18:55;31.80;69.50
61255;DHT22;47128;47.530;8.584;2022-07-03T07:21:20;31.30;70.90
61255;DHT22;47128;47.530;8.584;2022-07-03T07:23:46;30.90;71.60
61255;DHT22;47128;47.530;8.584;2022-07-03T07:26:11;30.40;72.10
61255;DHT22;47128;47.530;8.584;2022-07-03T07:28:37;29.60;73.50
61255;DHT22;47128;47.530;8.584;2022-07-03T07:31:03;29.50;74.00
61255;DHT22;47128;47.530;8.584;2022-07-03T07:33:28;29.70;74.20
61255;DHT22;47128;47.530;8.584;2022-07-03T07:35:54;29.60;74.10
61255;DHT22;47128;47.530;8.584;2022-07-03T07:38:20;29.40;73.50
61255;DHT22;47128;47.530;8.584;2022-07-03T07:40:46;29.40;74.10
61255;DHT22;47128;47.530;8.584;2022-07-03T07:43:12;29.20;75.00
61255;DHT22;47128;47.530;8.584;2022-07-03T07:45:38;29.00;74.90
61255;DHT22;47128;47.530;8.584;2022-07-03T07:48:05;29.10;75.10
61255;DHT22;47128;47.530;8.584;2022-07-03T07:50:30;28.80;75.80
61255;DHT22;47128;47.530;8.584;2022-07-03T07:52:56;28.90;75.60
61255;DHT22;47128;47.530;8.584;2022-07-03T07:55:21;29.00;74.60
61255;DHT22;47128;47.530;8.584;2022-07-03T07:57:48;29.10;73.00
61255;DHT22;47128;47.530;8.584;2022-07-03T08:00:17;29.10;73.50
61255;DHT22;47128;47.530;8.584;2022-07-03T08:02:45;28.80;73.90
61255;DHT22;47128;47.530;8.584;2022-07-03T08:05:30;29.00;71.70
61255;DHT22;47128;47.530;8.584;2022-07-03T08:08:16;28.70;71.20
61255;DHT22;47128;47.530;8.584;2022-07-03T08:10:50;28.80;71.20
61255;DHT22;47128;47.530;8.584;2022-07-03T08:13:17;29.10;72.10
61255;DHT22;47128;47.530;8.584;2022-07-03T08:15:43;28.90;71.60
61255;DHT22;47128;47.530;8.584;2022-07-03T08:18:09;28.70;71.70
61255;DHT22;47128;47.530;8.584;2022-07-03T08:20:36;28.60;71.20
61255;DHT22;47128;47.530;8.584;2022-07-03T08:23:02;28.90;70.70
61255;DHT22;47128;47.530;8.584;2022-07-03T08:25:29;28.80;70.80
61255;DHT22;47128;47.530;8.584;2022-07-03T08:27:55;28.80;69.30
61255;DHT22;47128;47.530;8.584;2022-07-03T08:30:21;29.00;69.60
61255;DHT22;47128;47.530;8.584;2022-07-03T08:32:48;29.00;67.60
61255;DHT22;47128;47.530;8.584;2022-07-03T08:35:14;29.10;67.90
61255;DHT22;47128;47.530;8.584;2022-07-03T08:37:40;29.00;68.00
61255;DHT22;47128;47.530;8.584;2022-07-03T08:40:08;28.80;67.80
61255;DHT22;47128;47.530;8.584;2022-07-03T08:42:37;29.00;68.60
61255;DHT22;47128;47.530;8.584;2022-07-03T08:45:06;29.40;68.30
61255;DHT22;47128;47.530;8.584;2022-07-03T08:47:33;29.50;66.50
61255;DHT22;47128;47.530;8.584;2022-07-03T08:50:01;29.40;67.10
61255;DHT22;47128;47.530;8.584;2022-07-03T08:52:28;29.40;66.70
61255;DHT22;47128;47.530;8.584;2022-07-03T08:54:54;29.60;66.60
61255;DHT22;47128;47.530;8.584;2022-07-03T08:57:20;29.90;65.60
61255;DHT22;47128;47.530;8.584;2022-07-03T08:59:52;30.00;65.50
61255;DHT22;47128;47.530;8.584;2022-07-03T09:02:18;29.70;65.10
61255;DHT22;47128;47.530;8.584;2022-07-03T09:04:45;29.20;65.20
61255;DHT22;47128;47.530;8.584;2022-07-03T09:07:11;29.30;66.10
61255;DHT22;47128;47.530;8.584;2022-07-03T09:09:39;29.40;65.60
61255;DHT22;47128;47.530;8.584;2022-07-03T09:12:05;29.60;65.30
61255;DHT22;47128;47.530;8.584;2022-07-03T09:14:31;30.00;64.10
61255;DHT22;47128;47.530;8.584;2022-07-03T09:16:56;30.20;64.00
61255;DHT22;47128;47.530;8.584;2022-07-03T09:19:45;30.30;63.60
61255;DHT22;47128;47.530;8.584;2022-07-03T09:22:26;29.90;63.60
61255;DHT22;47128;47.530;8.584;2022-07-03T09:25:06;29.80;64.00
61255;DHT22;47128;47.530;8.584;2022-07-03T09:27:34;29.70;64.60
61255;DHT22;47128;47.530;8.584;2022-07-03T09:30:04;29.80;64.10
61255;DHT22;47128;47.530;8.584;2022-07-03T09:32:42;29.80;64.60
61255;DHT22;47128;47.530;8.584;2022-07-03T09:35:26;29.60;64.00
61255;DHT22;47128;47.530;8.584;2022-07-03T09:37:57;29.60;64.40
61255;DHT22;47128;47.530;8.584;2022-07-03T09:40:25;29.60;64.70
61255;DHT22;47128;47.530;8.584;2022-07-03T09:43:06;29.60;63.50
61255;DHT22;47128;47.530;8.584;2022-07-03T09:48:37;29.40;63.50
61255;DHT22;47128;47.530;8.584;2022-07-03T09:53:47;29.10;63.40
61255;DHT22;47128;47.530;8.584;2022-07-03T09:56:13;29.20;62.50
61255;DHT22;47128;47.530;8.584;2022-07-03T09:58:39;29.20;61.90
61255;DHT22;47128;47.530;8.584;2022-07-03T10:01:18;29.20;62.40
61255;DHT22;47128;47.530;8.584;2022-07-03T10:03:43;29.40;61.90
61255;DHT22;47128;47.530;8.584;2022-07-03T10:06:09;29.40;61.00
61255;DHT22;47128;47.530;8.584;2022-07-03T10:08:35;29.50;60.90
61255;DHT22;47128;47.530;8.584;2022-07-03T10:11:01;29.50;60.60
61255;DHT22;47128;47.530;8.584;2022-07-03T10:13:28;29.40;60.70
61255;DHT22;47128;47.530;8.584;2022-07-03T10:15:54;29.40;61.20
61255;DHT22;47128;47.530;8.584;2022-07-03T10:18:20;29.50;60.20
61255;DHT22;47128;47.530;8.584;2022-07-03T10:20:49;29.40;60.70
61255;DHT22;47128;47.530;8.584;2022-07-03T10:23:16;29.60;61.60
61255;DHT22;47128;47.530;8.584;2022-07-03T10:25:43;29.50;60.70
61255;DHT22;47128;47.530;8.584;2022-07-03T10:28:12;29.80;59.60
61255;DHT22;47128;47.530;8.584;2022-07-03T10:30:38;30.00;59.50
61255;DHT22;47128;47.530;8.584;2022-07-03T10:33:05;29.70;59.50
61255;DHT22;47128;47.530;8.584;2022-07-03T10:35:34;30.00;60.40
61255;DHT22;47128;47.530;8.584;2022-07-03T10:43:43;30.60;60.40
61255;DHT22;47128;47.530;8.584;2022-07-03T10:46:29;30.60;59.10
61255;DHT22;47128;47.530;8.584;2022-07-03T10:51:21;31.10;59.10
61255;DHT22;47128;47.530;8.584;2022-07-03T10:53:47;31.10;57.90
61255;DHT22;47128;47.530;8.584;2022-07-03T10:56:13;31.00;57.80
61255;DHT22;47128;47.530;8.584;2022-07-03T10:58:56;31.10;57.30
61255;DHT22;47128;47.530;8.584;2022-07-03T11:01:29;30.70;58.60
61255;DHT22;47128;47.530;8.584;2022-07-03T11:03:58;30.50;57.50
61255;DHT22;47128;47.530;8.584;2022-07-03T11:07:07;30.40;57.50
61255;DHT22;47128;47.530;8.584;2022-07-03T11:09:30;30.70;58.30
61255;DHT22;47128;47.530;8.584;2022-07-03T11:11:56;30.70;58.50
61255;DHT22;47128;47.530;8.584;2022-07-03T11:14:27;30.60;57.90
61255;DHT22;47128;47.530;8.584;2022-07-03T11:17:26;30.70;57.60
61255;DHT22;47128;47.530;8.584;2022-07-03T11:19:52;30.70;58.00
61255;DHT22;47128;47.530;8.584;2022-07-03T11:25:10;31.00;57.50
61255;DHT22;47128;47.530;8.584;2022-07-03T11:27:40;31.00;57.70
61255;DHT22;47128;47.530;8.584;2022-07-03T11:30:06;31.10;57.20
61255;DHT22;47128;47.530;8.584;2022-07-03T11:32:50;31.10;57.30
61255;DHT22;47128;47.530;8.584;2022-07-03T11:35:43;30.80;57.30
61255;DHT22;47128;47.530;8.584;2022-07-03T11:38:10;30.80;57.90
61255;DHT22;47128;47.530;8.584;2022-07-03T11:40:41;30.80;57.90
61255;DHT22;47128;47.530;8.584;2022-07-03T11:43:11;31.00;58.70
61255;DHT22;47128;47.530;8.584;2022-07-03T11:45:39;30.90;57.60
61255;DHT22;47128;47.530;8.584;2022-07-03T11:50:44;31.00;57.20
61255;DHT22;47128;47.530;8.584;2022-07-03T11:53:24;30.70;57.00
61255;DHT22;47128;47.530;8.584;2022-07-03T11:56:08;31.10;57.50
61255;DHT22;47128;47.530;8.584;2022-07-03T11:58:52;31.40;56.60
61255;DHT22;47128;47.530;8.584;2022-07-03T12:04:14;31.30;56.20
61255;DHT22;47128;47.530;8.584;2022-07-03T12:06:50;31.30;55.10
61255;DHT22;47128;47.530;8.584;2022-07-03T12:09:32;31.10;55.30
61255;DHT22;47128;47.530;8.584;2022-07-03T12:12:11;31.20;55.70
61255;DHT22;47128;47.530;8.584;2022-07-03T12:14:50;31.30;55.80
61255;DHT22;47128;47.530;8.584;2022-07-03T12:17:24;31.50;55.10
61255;DHT22;47128;47.530;8.584;2022-07-03T12:20:01;31.60;55.60
61255;DHT22;47128;47.530;8.584;2022-07-03T12:22:36;31.50;54.70
61255;DHT22;47128;47.530;8.584;2022-07-03T12:25:10;31.60;55.00
61255;DHT22;47128;47.530;8.584;2022-07-03T12:27:41;31.70;54.80
61255;DHT22;47128;47.530;8.584;2022-07-03T12:30:12;31.30;54.30
61255;DHT22;47128;47.530;8.584;2022-07-03T12:32:41;31.50;55.40
61255;DHT22;47128;47.530;8.584;2022-07-03T12:35:08;31.50;54.40
61255;DHT22;47128;47.530;8.584;2022-07-03T12:37:43;31.60;55.00
61255;DHT22;47128;47.530;8.584;2022-07-03T12:40:13;31.90;54.40
61255;DHT22;47128;47.530;8.584;2022-07-03T12:42:47;31.90;54.20
61255;DHT22;47128;47.530;8.584;2022-07-03T12:45:17;31.90;54.20
61255;DHT22;47128;47.530;8.584;2022-07-03T12:48:22;31.70;54.20
61255;DHT22;47128;47.530;8.584;2022-07-03T12:50:50;31.80;53.90
61255;DHT22;47128;47.530;8.584;2022-07-03T12:53:30;31.60;54.70
61255;DHT22;47128;47.530;8.584;2022-07-03T12:56:01;31.80;55.10
61255;DHT22;47128;47.530;8.584;2022-07-03T12:58:30;31.80;54.60
61255;DHT22;47128;47.530;8.584;2022-07-03T13:01:29;31.90;54.60
61255;DHT22;47128;47.530;8.584;2022-07-03T13:03:59;32.00;56.00
61255;DHT22;47128;47.530;8.584;2022-07-03T13:06:26;32.10;55.00
61255;DHT22;47128;47.530;8.584;2022-07-03T13:08:57;32.30;53.40
61255;DHT22;47128;47.530;8.584;2022-07-03T13:14:12;32.60;53.10
61255;DHT22;47128;47.530;8.584;2022-07-03T13:16:43;32.50;53.00
61255;DHT22;47128;47.530;8.584;2022-07-03T13:19:10;32.80;53.10
61255;DHT22;47128;47.530;8.584;2022-07-03T13:24:03;33.10;52.40
61255;DHT22;47128;47.530;8.584;2022-07-03T13:26:30;33.30;52.30
61255;DHT22;47128;47.530;8.584;2022-07-03T13:28:55;33.00;52.60
61255;DHT22;47128;47.530;8.584;2022-07-03T13:31:21;33.10;52.10
61255;DHT22;47128;47.530;8.584;2022-07-03T13:33:47;32.90;51.90
61255;DHT22;47128;47.530;8.584;2022-07-03T13:36:12;32.70;52.00
61255;DHT22;47128;47.530;8.584;2022-07-03T13:38:38;32.70;52.80
61255;DHT22;47128;47.530;8.584;2022-07-03T13:41:03;32.90;52.50
61255;DHT22;47128;47.530;8.584;2022-07-03T13:43:29;32.90;52.50
61255;DHT22;47128;47.530;8.584;2022-07-03T13:45:55;32.80;52.10
61255;DHT22;47128;47.530;8.584;2022-07-03T13:48:21;32.70;52.10
61255;DHT22;47128;47.530;8.584;2022-07-03T13:50:47;32.90;51.90
61255;DHT22;47128;47.530;8.584;2022-07-03T13:53:13;33.10;52.10
61255;DHT22;47128;47.530;8.584;2022-07-03T13:55:39;32.80;52.20
61255;DHT22;47128;47.530;8.584;2022-07-03T13:58:08;32.70;51.90
61255;DHT22;47128;47.530;8.584;2022-07-03T14:00:35;32.50;52.30
61255;DHT22;47128;47.530;8.584;2022-07-03T14:03:01;32.60;52.40
61255;DHT22;47128;47.530;8.584;2022-07-03T14:05:28;32.80;52.40
61255;DHT22;47128;47.530;8.584;2022-07-03T14:07:55;33.00;52.00
61255;DHT22;47128;47.530;8.584;2022-07-03T14:10:24;33.10;51.90
61255;DHT22;47128;47.530;8.584;2022-07-03T14:12:51;33.20;50.90
61255;DHT22;47128;47.530;8.584;2022-07-03T14:15:17;33.20;51.20
61255;DHT22;47128;47.530;8.584;2022-07-03T14:20:10;33.50;51.90
61255;DHT22;47128;47.530;8.584;2022-07-03T14:22:36;33.40;51.20
61255;DHT22;47128;47.530;8.584;2022-07-03T14:25:02;33.30;51.20
61255;DHT22;47128;47.530;8.584;2022-07-03T14:27:28;33.30;50.80
61255;DHT22;47128;47.530;8.584;2022-07-03T14:30:12;33.20;51.30
61255;DHT22;47128;47.530;8.584;2022-07-03T14:32:56;33.30;51.60
61255;DHT22;47128;47.530;8.584;2022-07-03T14:35:22;33.40;50.90
61255;DHT22;47128;47.530;8.584;2022-07-03T14:37:49;33.30;51.20
61255;DHT22;47128;47.530;8.584;2022-07-03T14:40:14;33.20;53.70
61255;DHT22;47128;47.530;8.584;2022-07-03T14:42:40;32.90;51.50
61255;DHT22;47128;47.530;8.584;2022-07-03T14:45:07;32.80;51.60
61255;DHT22;47128;47.530;8.584;2022-07-03T14:47:33;33.10;51.80
61255;DHT22;47128;47.530;8.584;2022-07-03T14:49:59;33.30;51.40
61255;DHT22;47128;47.530;8.584;2022-07-03T14:52:26;33.30;51.40
61255;DHT22;47128;47.530;8.584;2022-07-03T14:54:53;33.10;51.70
61255;DHT22;47128;47.530;8.584;2022-07-03T14:57:47;33.10;52.40
61255;DHT22;47128;47.530;8.584;2022-07-03T15:00:14;33.10;52.70
61255;DHT22;47128;47.530;8.584;2022-07-03T15:03:05;32.90;51.80
61255;DHT22;47128;47.530;8.584;2022-07-03T15:05:39;32.70;55.10
61255;DHT22;47128;47.530;8.584;2022-07-03T15:10:32;32.00;55.40
61255;DHT22;47128;47.530;8.584;2022-07-03T15:13:00;31.90;56.20
61255;DHT22;47128;47.530;8.584;2022-07-03T15:15:29;31.80;57.10
61255;DHT22;47128;47.530;8.584;2022-07-03T15:17:58;31.80;57.50
61255;DHT22;47128;47.530;8.584;2022-07-03T15:20:32;31.60;57.00
61255;DHT22;47128;47.530;8.584;2022-07-03T15:23:01;31.60;58.70
61255;DHT22;47128;47.530;8.584;2022-07-03T15:25:32;31.60;58.10
61255;DHT22;47128;47.530;8.584;2022-07-03T15:27:58;31.60;56.10
61255;DHT22;47128;47.530;8.584;2022-07-03T15:30:25;31.60;58.60
61255;DHT22;47128;47.530;8.584;2022-07-03T15:32:53;31.70;59.60
61255;DHT22;47128;47.530;8.584;2022-07-03T15:35:22;31.90;59.50
61255;DHT22;47128;47.530;8.584;2022-07-03T15:40:32;32.20;57.50
61255;DHT22;47128;47.530;8.584;2022-07-03T15:46:02;31.90;58.80
61255;DHT22;47128;47.530;8.584;2022-07-03T15:54:29;30.90;60.00
61255;DHT22;47128;47.530;8.584;2022-07-03T15:56:58;30.90;58.80
61255;DHT22;47128;47.530;8.584;2022-07-03T15:59:29;30.90;58.00
61255;DHT22;47128;47.530;8.584;2022-07-03T16:01:59;30.80;61.00
61255;DHT22;47128;47.530;8.584;2022-07-03T16:07:26;30.80;61.40
61255;DHT22;47128;47.530;8.584;2022-07-03T16:09:52;30.70;62.70
61255;DHT22;47128;47.530;8.584;2022-07-03T16:12:18;30.70;62.70
61255;DHT22;47128;47.530;8.584;2022-07-03T16:14:50;30.70;62.00
61255;DHT22;47128;47.530;8.584;2022-07-03T16:17:21;30.90;61.70
61255;DHT22;47128;47.530;8.584;2022-07-03T16:19:49;31.10;62.10
61255;DHT22;47128;47.530;8.584;2022-07-03T16:22:16;31.10;60.50
61255;DHT22;47128;47.530;8.584;2022-07-03T16:24:42;31.40;59.10
61255;DHT22;47128;47.530;8.584;2022-07-03T16:27:17;31.80;59.10
61255;DHT22;47128;47.530;8.584;2022-07-03T16:29:48;32.00;58.50
61255;DHT22;47128;47.530;8.584;2022-07-03T16:32:19;32.20;58.40
61255;DHT22;47128;47.530;8.584;2022-07-03T16:37:37;32.40;56.80
61255;DHT22;47128;47.530;8.584;2022-07-03T16:40:06;32.10;56.60
61255;DHT22;47128;47.530;8.584;2022-07-03T16:42:33;32.10;57.50
61255;DHT22;47128;47.530;8.584;2022-07-03T16:45:08;32.10;56.30
61255;DHT22;47128;47.530;8.584;2022-07-03T16:47:43;31.90;57.00
61255;DHT22;47128;47.530;8.584;2022-07-03T16:50:22;31.80;57.30
61255;DHT22;47128;47.530;8.584;2022-07-03T16:52:53;31.70;58.10
61255;DHT22;47128;47.530;8.584;2022-07-03T16:55:20;31.70;58.00
61255;DHT22;47128;47.530;8.584;2022-07-03T17:00:21;31.90;57.80
61255;DHT22;47128;47.530;8.584;2022-07-03T17:02:48;31.80;57.30
61255;DHT22;47128;47.530;8.584;2022-07-03T17:05:16;31.70;57.40
61255;DHT22;47128;47.530;8.584;2022-07-03T17:07:43;31.70;57.10
61255;DHT22;47128;47.530;8.584;2022-07-03T17:10:15;31.60;56.70